Airfield :







YOU CAN JOIN US ON...

 
LOGIN :

Register | Disclaimer

   EN    FR    IT 

 









Legend :    VFR   Marginal VFR   IFR   Intensive IFR   Very Intensive IFR
Visi :
Ceiling :
>= 8 km
>= 3000ft
5 to 8 km
1000 to 3000 ft
1500m to 5 km
500 to 1000 ft
800 to 1500m
200 to 500 ft
< 800m
< 200 ft
Symbols :   Thunderstorms  Fog  Heavy snow  Heavy precipitations  Wind > 20 kt






- Airport Elevation : 586 ft
- IATA code : YRJ


CYRJ - Roberval

CURRENT METAR :
  • 032100Z 32010G16KT 290V360 40SM SCT050 BKN090 16/09 A2989 RMK SC3AC4 SLP130 DENSITY ALT 1000FT

EXPIRED METARs :
  • 032000Z 27012G18KT 230V310 40SM VCSH SCT050 BKN080 18/10 A2987 RMK SC3AC4 SLP120 DENSITY ALT 1200FT
  • 031920Z 27012G19KT 40SM FEW030 BKN100 16/08 A2987 RMK SC1AC6 SC TR SLP120 DENSITY ALT 1000FT
  • 031900Z 28007G16KT 25SM -SHRA FEW040 BKN076 15/11 A2987 RMK SC1AC7 SC TR SLP121 DENSITY ALT 800FT
  • 031827Z 31021G36KT 260V330 25SM -SHRA BKN058 19/08 A2986 RMK SC7 CVCTV CLD EMBD PRESRR SLP115 DENSITY ALT 1400FT
  • 030500Z 30008KT 25SM SKC 11/05 A2987 RMK SLP120

TAF TAF CYRJ
Valid from the 03 at 20:00 until the 04 at 02:00 UTC


031940Z 0320/0402 27010G20KT P6SM FEW025 BKN100
TEMPO 0320/0402 4SM -SHRA BR BKN030 BKN100
PROB30 0320/0324 2SM TSRA BR BKN020CB RMK NXT FCST BY 041200Z
CZUL FIR / North America



MET'MAP, your aeronautical weather chart ! - Copyright ORBIFLY December 2007 - Disclaimer

ORBIFLY MET'MAP TEAM :

Programming & Development : Alexandra Zaïnal
Original concept : Baudouin d'Aumeries
Technical & hardware support : Manuel Goepfert
Assistance : Marc-Olivier Méhu




SOURCES & CREDITS :

   NOAA